createdAt,value
2023-02-03T00:03:40.731Z,5.87
2023-02-03T00:08:42.692Z,5.94
2023-02-03T00:13:44.371Z,5.99
2023-02-03T00:18:46.126Z,6.00
2023-02-03T00:23:47.809Z,6.02
2023-02-03T00:28:49.536Z,6.03
2023-02-03T00:33:56.259Z,6.02
2023-02-03T00:38:58.004Z,5.99
2023-02-03T00:44:01.157Z,5.94
2023-02-03T00:49:04.717Z,5.87
2023-02-03T00:54:06.466Z,5.87
2023-02-03T00:59:08.468Z,5.87
2023-02-03T01:04:10.117Z,5.84
2023-02-03T01:09:11.798Z,5.83
2023-02-03T01:14:13.488Z,5.84
2023-02-03T01:19:15.222Z,5.84
2023-02-03T01:24:17.303Z,5.82
2023-02-03T01:29:19.701Z,5.84
2023-02-03T01:34:21.400Z,5.84
2023-02-03T01:39:23.073Z,5.83
2023-02-03T01:44:49.376Z,5.81
2023-02-03T01:50:27.611Z,5.79
2023-02-03T01:55:44.206Z,5.83
2023-02-03T02:00:47.582Z,5.85
2023-02-03T02:05:56.633Z,5.83
2023-02-03T02:11:02.553Z,5.83
2023-02-03T02:16:18.141Z,5.84
2023-02-03T02:21:29.869Z,5.85
2023-02-03T02:26:50.617Z,5.88
2023-02-03T02:31:58.300Z,5.94
2023-02-03T02:37:25.739Z,5.93
2023-02-03T02:42:42.765Z,5.91
2023-02-03T02:47:45.240Z,5.95
2023-02-03T02:52:49.932Z,6.01
2023-02-03T02:57:56.403Z,6.04
2023-02-03T03:03:07.525Z,6.10
2023-02-03T03:08:12.393Z,6.05
2023-02-03T03:13:20.608Z,6.10
2023-02-03T03:18:38.920Z,6.13
2023-02-03T03:23:44.966Z,6.09
2023-02-03T03:28:55.646Z,6.11
2023-02-03T03:33:57.481Z,6.11
2023-02-03T03:39:09.583Z,6.11
2023-02-03T03:44:15.125Z,6.15
2023-02-03T03:49:20.399Z,6.09
2023-02-03T03:54:25.188Z,6.11
2023-02-03T03:59:32.914Z,6.10
2023-02-03T04:04:37.703Z,6.16
2023-02-03T04:09:40.585Z,6.14
2023-02-03T04:14:42.351Z,6.17
2023-02-03T04:19:44.094Z,6.14
2023-02-03T04:24:45.892Z,6.08
2023-02-03T04:29:47.697Z,6.11
2023-02-03T04:34:49.760Z,6.15
2023-02-03T04:39:52.240Z,6.13
2023-02-03T04:44:53.948Z,6.18
2023-02-03T04:49:55.612Z,6.18
2023-02-03T04:54:57.335Z,6.19
2023-02-03T04:59:59.051Z,6.20
2023-02-03T05:05:00.685Z,6.19
2023-02-03T05:10:02.359Z,6.23
2023-02-03T05:15:04.780Z,6.24
2023-02-03T05:20:07.390Z,6.19
2023-02-03T05:25:09.486Z,6.15
2023-02-03T05:30:11.980Z,6.17
2023-02-03T05:35:13.824Z,6.10
2023-02-03T05:40:34.336Z,6.07
2023-02-03T05:45:36.082Z,6.15
2023-02-03T05:50:38.766Z,6.22
2023-02-03T05:55:43.662Z,6.20
2023-02-03T06:00:45.529Z,6.24
2023-02-03T06:05:47.647Z,6.22
2023-02-03T06:10:49.308Z,6.26
2023-02-03T06:15:50.922Z,6.24
2023-02-03T06:20:52.845Z,6.29
2023-02-03T06:25:54.546Z,6.25
2023-02-03T06:30:56.344Z,6.29
2023-02-03T06:35:58.389Z,6.25
2023-02-03T06:41:00.093Z,6.24
2023-02-03T06:46:01.841Z,6.16
2023-02-03T06:51:04.228Z,6.20
2023-02-03T06:56:06.153Z,6.22
2023-02-03T07:01:07.852Z,6.19
2023-02-03T07:06:09.510Z,6.25
2023-02-03T07:11:11.188Z,6.27
2023-02-03T07:16:13.735Z,6.26
2023-02-03T07:21:16.282Z,6.33
2023-02-03T07:26:18.916Z,6.32
2023-02-03T07:31:21.142Z,6.34
2023-02-03T07:36:24.222Z,6.40
2023-02-03T07:41:25.887Z,6.41
2023-02-03T07:46:27.836Z,6.36
2023-02-03T07:51:29.716Z,6.36
2023-02-03T07:56:32.705Z,6.34
2023-02-03T08:01:34.957Z,6.34
2023-02-03T08:06:36.683Z,6.38
2023-02-03T08:11:38.756Z,6.46
2023-02-03T08:16:40.614Z,6.46
2023-02-03T08:21:42.299Z,6.43
2023-02-03T08:26:44.542Z,6.46
2023-02-03T08:31:46.291Z,6.48
2023-02-03T08:36:48.243Z,6.54
2023-02-03T08:41:49.966Z,6.52
2023-02-03T08:46:52.970Z,6.57
2023-02-03T08:51:55.670Z,6.56
2023-02-03T08:56:57.374Z,6.58
2023-02-03T09:01:59.931Z,6.64
2023-02-03T09:07:04.258Z,6.58
2023-02-03T09:12:07.401Z,6.56
2023-02-03T09:17:09.847Z,6.56
2023-02-03T09:22:11.779Z,6.49
2023-02-03T09:27:13.739Z,6.47
2023-02-03T09:32:15.909Z,6.53
2023-02-03T09:37:17.940Z,6.56
2023-02-03T09:42:34.850Z,6.59
2023-02-03T09:47:40.914Z,6.54
2023-02-03T09:52:44.255Z,6.60
2023-02-03T09:57:51.544Z,6.60
2023-02-03T10:02:59.994Z,6.68
2023-02-03T10:08:35.118Z,6.73
2023-02-03T10:13:48.367Z,6.75
2023-02-03T10:18:53.928Z,6.73
2023-02-03T10:23:58.372Z,6.79
2023-02-03T10:29:16.486Z,6.87
2023-02-03T10:34:19.828Z,6.88
2023-02-03T10:39:44.176Z,6.85
2023-02-03T10:44:54.058Z,6.87
2023-02-03T10:49:57.906Z,6.91
2023-02-03T10:55:04.552Z,6.93
2023-02-03T11:00:22.643Z,6.91
2023-02-03T11:05:27.437Z,6.94
2023-02-03T11:10:29.398Z,7.02
2023-02-03T11:15:31.306Z,7.10
2023-02-03T11:20:36.722Z,7.04
2023-02-03T11:25:38.734Z,7.02
2023-02-03T11:30:40.593Z,7.11
2023-02-03T11:35:55.711Z,7.17
2023-02-03T11:41:01.299Z,7.28
2023-02-03T11:46:07.789Z,7.38
2023-02-03T11:51:15.694Z,7.35
2023-02-03T11:56:55.353Z,7.32
2023-02-03T12:02:18.935Z,7.37
2023-02-03T12:07:31.882Z,7.41
2023-02-03T12:12:57.625Z,7.42
2023-02-03T12:18:36.759Z,7.47
2023-02-03T12:24:13.996Z,7.51
2023-02-03T12:29:22.007Z,7.48
2023-02-03T12:34:32.122Z,7.47
2023-02-03T12:39:40.355Z,7.51
2023-02-03T12:44:52.203Z,7.51
2023-02-03T12:49:59.483Z,7.57
2023-02-03T12:55:13.164Z,7.56
2023-02-03T13:00:19.744Z,7.54
2023-02-03T13:05:29.779Z,7.62
2023-02-03T13:10:48.777Z,7.69
2023-02-03T13:15:52.999Z,7.64
2023-02-03T13:20:55.295Z,7.66
2023-02-03T13:26:18.883Z,7.67
2023-02-03T13:31:54.960Z,7.65
2023-02-03T13:37:41.108Z,7.64
2023-02-03T13:42:55.587Z,7.80
2023-02-03T13:48:28.805Z,7.85
2023-02-03T13:53:36.380Z,7.70
2023-02-03T13:58:39.342Z,7.65
2023-02-03T14:03:42.943Z,7.60
2023-02-03T14:08:52.432Z,7.60
2023-02-03T14:14:20.717Z,7.62
2023-02-03T14:19:22.377Z,7.59
2023-02-03T14:24:31.391Z,7.61
2023-02-03T14:29:35.573Z,7.63
2023-02-03T14:34:43.386Z,7.65
2023-02-03T14:40:15.110Z,7.65
2023-02-03T14:45:30.371Z,7.70
2023-02-03T14:50:46.733Z,7.74
2023-02-03T14:56:11.010Z,7.76
2023-02-03T15:01:37.761Z,7.77
2023-02-03T15:06:45.323Z,7.82
2023-02-03T15:11:47.905Z,7.81
2023-02-03T15:16:58.894Z,7.77
2023-02-03T15:22:01.736Z,7.70
2023-02-03T15:27:03.566Z,7.66
2023-02-03T15:32:11.744Z,7.64
2023-02-03T15:37:21.488Z,7.63
2023-02-03T15:42:32.161Z,7.58
2023-02-03T15:47:38.646Z,7.54
2023-02-03T15:52:42.133Z,7.53
2023-02-03T15:57:47.658Z,7.48
2023-02-03T16:02:49.864Z,7.46
2023-02-03T16:07:52.418Z,7.38
2023-02-03T16:12:54.586Z,7.30
2023-02-03T16:17:59.612Z,7.29
2023-02-03T16:23:03.294Z,7.22
2023-02-03T16:28:34.244Z,7.12
2023-02-03T16:33:55.318Z,7.09
2023-02-03T16:39:17.192Z,7.00
2023-02-03T16:44:37.612Z,6.93
2023-02-03T16:49:57.886Z,6.90
2023-02-03T16:54:59.660Z,6.86
2023-02-03T17:00:01.404Z,6.86
2023-02-03T17:05:03.362Z,6.88
2023-02-03T17:10:05.376Z,6.88
2023-02-03T17:15:08.580Z,6.91
2023-02-03T17:20:10.703Z,6.93
2023-02-03T17:25:12.482Z,6.96
2023-02-03T17:30:14.655Z,6.92
2023-02-03T17:35:16.484Z,6.93
2023-02-03T17:56:26.679Z,6.88
2023-02-03T18:01:28.730Z,6.88
2023-02-03T18:06:35.113Z,6.88
2023-02-03T18:11:37.900Z,6.89
2023-02-03T18:16:40.174Z,6.87
2023-02-03T18:21:43.474Z,6.88
2023-02-03T18:26:47.242Z,6.89
2023-02-03T18:31:48.918Z,6.89
2023-02-03T18:36:50.721Z,6.89
2023-02-03T18:41:52.621Z,6.91
2023-02-03T18:46:54.813Z,6.93
2023-02-03T18:51:57.016Z,6.88
2023-02-03T18:56:59.062Z,6.89
2023-02-03T19:02:01.243Z,6.88
2023-02-03T19:07:03.054Z,6.89
2023-02-03T19:12:05.944Z,6.93
2023-02-03T19:17:08.398Z,6.94
2023-02-03T19:22:11.898Z,6.96
2023-02-03T19:27:13.608Z,6.93
2023-02-03T19:32:15.396Z,6.97
2023-02-03T19:37:17.122Z,6.97
2023-02-03T19:42:18.989Z,7.02
2023-02-03T19:47:21.169Z,7.05
2023-02-03T19:52:23.055Z,7.08
2023-02-03T19:57:24.846Z,7.07
2023-02-03T20:02:27.287Z,7.05
2023-02-03T20:07:32.485Z,7.08
2023-02-03T20:12:34.227Z,7.12
2023-02-03T20:17:36.073Z,7.10
2023-02-03T20:22:37.803Z,7.16
2023-02-03T20:27:39.586Z,7.13
2023-02-03T20:32:41.279Z,7.11
2023-02-03T20:37:43.497Z,7.10
2023-02-03T20:42:45.263Z,7.05
2023-02-03T20:47:47.670Z,7.02
2023-02-03T20:52:52.176Z,6.96
2023-02-03T20:57:56.784Z,6.96
2023-02-03T21:03:17.030Z,6.97
2023-02-03T21:08:20.327Z,6.98
2023-02-03T21:13:25.759Z,7.02
2023-02-03T21:18:47.143Z,7.06
2023-02-03T21:23:49.119Z,7.03
2023-02-03T21:28:56.234Z,7.03
2023-02-03T21:34:00.146Z,7.02
2023-02-03T21:39:02.176Z,6.99
2023-02-03T21:44:33.739Z,6.96
2023-02-03T21:49:35.616Z,6.93
2023-02-03T21:54:41.821Z,6.90
2023-02-03T21:59:46.914Z,6.87
2023-02-03T22:04:48.608Z,6.89
2023-02-03T22:09:51.541Z,6.87
2023-02-03T22:14:53.111Z,6.90
2023-02-03T22:19:54.716Z,6.90
2023-02-03T22:24:56.396Z,6.95
2023-02-03T22:29:58.360Z,6.96
2023-02-03T22:34:59.991Z,6.96
2023-02-03T22:40:03.427Z,6.97
2023-02-03T22:45:06.409Z,6.98
2023-02-03T22:50:09.189Z,6.98
2023-02-03T22:55:10.920Z,7.00
2023-02-03T23:00:18.062Z,7.03
2023-02-03T23:05:20.661Z,7.14
2023-02-03T23:10:25.400Z,7.18
2023-02-03T23:15:28.042Z,7.17
2023-02-03T23:20:30.211Z,7.29
2023-02-03T23:25:32.084Z,7.29
2023-02-03T23:30:34.143Z,7.27
2023-02-03T23:35:49.287Z,7.30
2023-02-03T23:40:51.304Z,7.28
2023-02-03T23:45:53.082Z,7.21
2023-02-03T23:50:54.746Z,7.27
2023-02-03T23:55:56.443Z,7.25
